sensor_id;sensor_type;location;lat;lon;timestamp;pressure;altitude;pressure_sealevel;temperature;humidity
35248;BME280;21380;52.194;20.520;2023-04-25T00:01:45;99244.09;;;19.47;54.16
35248;BME280;21380;52.194;20.520;2023-04-25T00:04:10;99253.66;;;19.51;54.26
35248;BME280;21380;52.194;20.520;2023-04-25T00:06:37;99258.00;;;19.52;54.27
35248;BME280;21380;52.194;20.520;2023-04-25T00:09:04;99262.34;;;19.54;54.47
35248;BME280;21380;52.194;20.520;2023-04-25T00:11:33;99256.25;;;19.52;54.26
35248;BME280;21380;52.194;20.520;2023-04-25T00:13:59;99255.50;;;19.46;54.57
35248;BME280;21380;52.194;20.520;2023-04-25T00:16:28;99251.03;;;19.49;54.46
35248;BME280;21380;52.194;20.520;2023-04-25T00:18:56;99256.28;;;19.51;54.85
35248;BME280;21380;52.194;20.520;2023-04-25T00:21:22;99259.72;;;19.53;54.76
35248;BME280;21380;52.194;20.520;2023-04-25T00:23:50;99245.91;;;19.44;54.95
35248;BME280;21380;52.194;20.520;2023-04-25T00:26:16;99255.38;;;19.53;54.96
35248;BME280;21380;52.194;20.520;2023-04-25T00:28:41;99251.00;;;19.52;55.10
35248;BME280;21380;52.194;20.520;2023-04-25T00:31:07;99254.50;;;19.51;55.11
35248;BME280;21380;52.194;20.520;2023-04-25T00:33:33;99254.50;;;19.51;55.08
35248;BME280;21380;52.194;20.520;2023-04-25T00:35:59;99246.72;;;19.48;55.15
35248;BME280;21380;52.194;20.520;2023-04-25T00:38:24;99248.50;;;19.46;54.98
35248;BME280;21380;52.194;20.520;2023-04-25T00:40:50;99247.53;;;19.50;55.20
35248;BME280;21380;52.194;20.520;2023-04-25T00:43:16;99239.78;;;19.44;55.21
35248;BME280;21380;52.194;20.520;2023-04-25T00:45:42;99255.44;;;19.49;55.26
35248;BME280;21380;52.194;20.520;2023-04-25T00:48:08;99253.75;;;19.44;55.55
35248;BME280;21380;52.194;20.520;2023-04-25T00:50:36;99252.88;;;19.46;55.51
35248;BME280;21380;52.194;20.520;2023-04-25T00:53:02;99258.06;;;19.47;55.45
35248;BME280;21380;52.194;20.520;2023-04-25T00:55:29;99241.63;;;19.39;55.38
35248;BME280;21380;52.194;20.520;2023-04-25T00:57:57;99264.16;;;19.48;55.45
35248;BME280;21380;52.194;20.520;2023-04-25T01:00:23;99257.22;;;19.45;55.45
35248;BME280;21380;52.194;20.520;2023-04-25T01:02:49;99243.44;;;19.34;55.69
35248;BME280;21380;52.194;20.520;2023-04-25T01:05:16;99242.59;;;19.33;55.70
35248;BME280;21380;52.194;20.520;2023-04-25T01:07:41;99235.63;;;19.32;55.59
35248;BME280;21380;52.194;20.520;2023-04-25T01:10:08;99246.03;;;19.37;55.55
35248;BME280;21380;52.194;20.520;2023-04-25T01:12:33;99260.72;;;19.44;55.49
35248;BME280;21380;52.194;20.520;2023-04-25T01:15:00;99256.41;;;19.43;55.73
35248;BME280;21380;52.194;20.520;2023-04-25T01:17:26;99231.31;;;19.30;55.79
35248;BME280;21380;52.194;20.520;2023-04-25T01:19:53;99245.97;;;19.40;55.92
35248;BME280;21380;52.194;20.520;2023-04-25T01:22:19;99252.97;;;19.39;55.87
35248;BME280;21380;52.194;20.520;2023-04-25T01:24:45;99250.31;;;19.41;55.74
35248;BME280;21380;52.194;20.520;2023-04-25T01:27:11;99252.94;;;19.41;55.85
35248;BME280;21380;52.194;20.520;2023-04-25T01:29:40;99249.47;;;19.39;55.57
35248;BME280;21380;52.194;20.520;2023-04-25T01:32:06;99229.56;;;19.28;55.93
35248;BME280;21380;52.194;20.520;2023-04-25T01:34:32;99245.13;;;19.39;55.94
35248;BME280;21380;52.194;20.520;2023-04-25T01:36:59;99239.13;;;19.31;55.84
35248;BME280;21380;52.194;20.520;2023-04-25T01:39:25;99240.78;;;19.35;55.78
35248;BME280;21380;52.194;20.520;2023-04-25T01:41:51;99233.91;;;19.30;56.02
35248;BME280;21380;52.194;20.520;2023-04-25T01:44:17;99245.19;;;19.33;55.82
35248;BME280;21380;52.194;20.520;2023-04-25T01:46:43;99252.97;;;19.36;55.94
35248;BME280;21380;52.194;20.520;2023-04-25T01:49:09;99244.41;;;19.28;55.96
35248;BME280;21380;52.194;20.520;2023-04-25T01:51:35;99236.56;;;19.28;55.75
35248;BME280;21380;52.194;20.520;2023-04-25T01:54:01;99253.00;;;19.35;56.04
35248;BME280;21380;52.194;20.520;2023-04-25T01:56:31;99255.63;;;19.35;55.88
35248;BME280;21380;52.194;20.520;2023-04-25T01:58:57;99256.50;;;19.34;55.81
35248;BME280;21380;52.194;20.520;2023-04-25T02:01:23;99224.47;;;19.18;55.77
35248;BME280;21380;52.194;20.520;2023-04-25T02:03:49;99248.66;;;19.34;55.87
35248;BME280;21380;52.194;20.520;2023-04-25T02:06:15;99249.59;;;19.30;55.87
35248;BME280;21380;52.194;20.520;2023-04-25T02:08:41;99246.13;;;19.27;56.10
35248;BME280;21380;52.194;20.520;2023-04-25T02:11:07;99251.34;;;19.31;55.85
35248;BME280;21380;52.194;20.520;2023-04-25T02:13:33;99238.34;;;19.24;55.69
35248;BME280;21380;52.194;20.520;2023-04-25T02:15:59;99242.66;;;19.25;55.85
35248;BME280;21380;52.194;20.520;2023-04-25T02:18:25;99236.63;;;19.23;55.95
35248;BME280;21380;52.194;20.520;2023-04-25T02:20:51;99240.06;;;19.25;56.09
35248;BME280;21380;52.194;20.520;2023-04-25T02:23:17;99256.56;;;19.31;55.90
35248;BME280;21380;52.194;20.520;2023-04-25T02:25:45;99263.53;;;19.30;55.80
35248;BME280;21380;52.194;20.520;2023-04-25T02:28:11;99244.50;;;19.22;56.03
35248;BME280;21380;52.194;20.520;2023-04-25T02:30:37;99246.19;;;19.24;55.95
35248;BME280;21380;52.194;20.520;2023-04-25T02:33:03;99247.00;;;19.28;56.06
35248;BME280;21380;52.194;20.520;2023-04-25T02:35:28;99226.28;;;19.16;55.93
35248;BME280;21380;52.194;20.520;2023-04-25T02:37:54;99249.63;;;19.28;56.31
35248;BME280;21380;52.194;20.520;2023-04-25T02:40:20;99245.28;;;19.27;56.29
35248;BME280;21380;52.194;20.520;2023-04-25T02:42:46;99227.09;;;19.19;56.35
35248;BME280;21380;52.194;20.520;2023-04-25T02:45:12;99240.97;;;19.24;56.32
35248;BME280;21380;52.194;20.520;2023-04-25T02:47:38;99236.66;;;19.22;56.58
35248;BME280;21380;52.194;20.520;2023-04-25T02:50:04;99225.44;;;19.12;56.43
35248;BME280;21380;52.194;20.520;2023-04-25T02:52:31;99230.50;;;19.24;56.30
35248;BME280;21380;52.194;20.520;2023-04-25T02:54:56;99231.34;;;19.25;56.40
35248;BME280;21380;52.194;20.520;2023-04-25T02:57:22;99227.09;;;19.19;56.28
35248;BME280;21380;52.194;20.520;2023-04-25T02:59:48;99232.31;;;19.19;56.73
35248;BME280;21380;52.194;20.520;2023-04-25T03:02:14;99236.63;;;19.23;56.35
35248;BME280;21380;52.194;20.520;2023-04-25T03:04:40;99236.66;;;19.22;56.67
35248;BME280;21380;52.194;20.520;2023-04-25T03:07:06;99234.88;;;19.22;56.72
35248;BME280;21380;52.194;20.520;2023-04-25T03:09:32;99231.41;;;19.22;56.61
35248;BME280;21380;52.194;20.520;2023-04-25T03:11:58;99240.13;;;19.21;56.73
35248;BME280;21380;52.194;20.520;2023-04-25T03:14:24;99233.22;;;19.15;56.71
35248;BME280;21380;52.194;20.520;2023-04-25T03:16:50;99232.38;;;19.15;56.51
35248;BME280;21380;52.194;20.520;2023-04-25T03:19:16;99237.56;;;19.19;56.63
35248;BME280;21380;52.194;20.520;2023-04-25T03:21:42;99219.38;;;19.10;56.89
35248;BME280;21380;52.194;20.520;2023-04-25T03:24:08;99230.63;;;19.15;56.49
35248;BME280;21380;52.194;20.520;2023-04-25T03:26:34;99233.28;;;19.12;57.18
35248;BME280;21380;52.194;20.520;2023-04-25T03:29:00;99227.19;;;19.11;56.92
35248;BME280;21380;52.194;20.520;2023-04-25T03:31:26;99243.69;;;19.15;57.10
35248;BME280;21380;52.194;20.520;2023-04-25T03:33:52;99240.22;;;19.15;57.10
35248;BME280;21380;52.194;20.520;2023-04-25T03:36:18;99243.69;;;19.15;56.88
35248;BME280;21380;52.194;20.520;2023-04-25T03:38:45;99249.81;;;19.12;56.64
35248;BME280;21380;52.194;20.520;2023-04-25T03:41:11;99232.47;;;19.05;56.93
35248;BME280;21380;52.194;20.520;2023-04-25T03:43:36;99248.97;;;19.12;56.74
35248;BME280;21380;52.194;20.520;2023-04-25T03:46:02;99235.19;;;19.01;56.62
35248;BME280;21380;52.194;20.520;2023-04-25T03:48:28;99258.53;;;19.11;56.82
35248;BME280;21380;52.194;20.520;2023-04-25T03:50:54;99261.19;;;19.10;57.18
35248;BME280;21380;52.194;20.520;2023-04-25T03:53:20;99250.78;;;19.07;57.08
35248;BME280;21380;52.194;20.520;2023-04-25T03:55:46;99247.34;;;19.03;57.01
35248;BME280;21380;52.194;20.520;2023-04-25T03:58:12;99248.22;;;19.02;56.93
35248;BME280;21380;52.194;20.520;2023-04-25T04:00:38;99259.47;;;19.07;57.07
35248;BME280;21380;52.194;20.520;2023-04-25T04:03:04;99268.16;;;19.09;57.20
35248;BME280;21380;52.194;20.520;2023-04-25T04:05:30;99273.41;;;19.09;57.00
35248;BME280;21380;52.194;20.520;2023-04-25T04:07:56;99278.66;;;19.06;57.23
35248;BME280;21380;52.194;20.520;2023-04-25T04:10:22;99282.97;;;19.09;57.18
35248;BME280;21380;52.194;20.520;2023-04-25T04:12:48;99281.25;;;19.06;57.24
35248;BME280;21380;52.194;20.520;2023-04-25T04:15:14;99294.31;;;19.08;57.09
35248;BME280;21380;52.194;20.520;2023-04-25T04:17:39;99293.47;;;19.07;57.07
35248;BME280;21380;52.194;20.520;2023-04-25T04:20:07;99300.44;;;19.07;57.10
35248;BME280;21380;52.194;20.520;2023-04-25T04:22:33;99298.69;;;19.07;57.41
35248;BME280;21380;52.194;20.520;2023-04-25T04:24:59;99296.13;;;19.04;57.14
35248;BME280;21380;52.194;20.520;2023-04-25T04:27:25;99296.97;;;19.05;57.37
35248;BME280;21380;52.194;20.520;2023-04-25T04:29:52;99285.75;;;18.98;57.43
35248;BME280;21380;52.194;20.520;2023-04-25T04:32:18;99290.09;;;18.96;57.44
35248;BME280;21380;52.194;20.520;2023-04-25T04:34:44;99296.19;;;18.96;57.16
35248;BME280;21380;52.194;20.520;2023-04-25T04:37:12;99301.34;;;19.03;57.26
35248;BME280;21380;52.194;20.520;2023-04-25T04:39:38;99307.44;;;19.05;57.10
35248;BME280;21380;52.194;20.520;2023-04-25T04:42:04;99317.88;;;19.05;57.48
35248;BME280;21380;52.194;20.520;2023-04-25T04:44:31;99318.72;;;19.05;57.56
35248;BME280;21380;52.194;20.520;2023-04-25T04:47:01;99299.66;;;18.99;57.65
35248;BME280;21380;52.194;20.520;2023-04-25T04:49:27;99315.25;;;19.05;57.34
35248;BME280;21380;52.194;20.520;2023-04-25T04:51:53;99295.28;;;19.01;57.50
35248;BME280;21380;52.194;20.520;2023-04-25T04:54:20;99290.06;;;18.99;57.70
35248;BME280;21380;52.194;20.520;2023-04-25T04:56:46;99296.13;;;19.01;57.77
35248;BME280;21380;52.194;20.520;2023-04-25T04:59:11;99292.69;;;19.01;57.61
35248;BME280;21380;52.194;20.520;2023-04-25T05:01:37;99291.78;;;19.02;57.65
35248;BME280;21380;52.194;20.520;2023-04-25T05:04:03;99287.47;;;18.98;57.75
35248;BME280;21380;52.194;20.520;2023-04-25T05:06:30;99288.34;;;18.96;57.84
35248;BME280;21380;52.194;20.520;2023-04-25T05:08:57;99281.47;;;18.91;57.91
35248;BME280;21380;52.194;20.520;2023-04-25T05:11:24;99303.09;;;19.02;57.62
35248;BME280;21380;52.194;20.520;2023-04-25T05:13:53;99303.13;;;19.01;57.79
35248;BME280;21380;52.194;20.520;2023-04-25T05:16:20;99308.34;;;19.01;57.92
35248;BME280;21380;52.194;20.520;2023-04-25T05:18:46;99309.22;;;19.01;57.78
35248;BME280;21380;52.194;20.520;2023-04-25T05:21:12;99304.06;;;18.93;57.93
35248;BME280;21380;52.194;20.520;2023-04-25T05:23:38;99309.22;;;19.00;57.91
35248;BME280;21380;52.194;20.520;2023-04-25T05:26:04;99307.47;;;19.00;57.83
35248;BME280;21380;52.194;20.520;2023-04-25T05:28:30;99304.03;;;18.98;57.61
35248;BME280;21380;52.194;20.520;2023-04-25T05:30:57;99325.56;;;18.31;60.32
35248;BME280;21380;52.194;20.520;2023-04-25T05:33:23;99334.19;;;16.63;66.30
35248;BME280;21380;52.194;20.520;2023-04-25T05:35:49;99341.13;;;15.97;69.13
35248;BME280;21380;52.194;20.520;2023-04-25T05:38:15;99311.56;;;15.46;70.82
35248;BME280;21380;52.194;20.520;2023-04-25T05:40:41;99324.69;;;16.17;67.64
35248;BME280;21380;52.194;20.520;2023-04-25T05:43:07;99315.13;;;16.53;64.94
35248;BME280;21380;52.194;20.520;2023-04-25T05:45:33;99325.50;;;16.78;64.12
35248;BME280;21380;52.194;20.520;2023-04-25T05:47:59;99327.19;;;17.00;63.81
35248;BME280;21380;52.194;20.520;2023-04-25T05:50:25;99325.41;;;17.18;64.41
35248;BME280;21380;52.194;20.520;2023-04-25T05:52:51;99336.59;;;17.39;63.40
35248;BME280;21380;52.194;20.520;2023-04-25T05:55:17;99333.06;;;17.49;63.26
35248;BME280;21380;52.194;20.520;2023-04-25T05:57:43;99348.66;;;17.63;62.51
35248;BME280;21380;52.194;20.520;2023-04-25T06:00:12;99342.50;;;17.70;62.52
35248;BME280;21380;52.194;20.520;2023-04-25T06:02:38;99345.06;;;17.79;62.02
35248;BME280;21380;52.194;20.520;2023-04-25T06:05:05;99343.31;;;17.83;61.68
35248;BME280;21380;52.194;20.520;2023-04-25T06:07:31;99336.31;;;17.85;61.05
35248;BME280;21380;52.194;20.520;2023-04-25T06:09:57;99339.78;;;17.90;61.09
35248;BME280;21380;52.194;20.520;2023-04-25T06:12:23;99338.00;;;17.92;60.70
35248;BME280;21380;52.194;20.520;2023-04-25T06:14:49;99333.69;;;17.93;60.80
35248;BME280;21380;52.194;20.520;2023-04-25T06:17:14;99351.00;;;18.05;60.16
35248;BME280;21380;52.194;20.520;2023-04-25T06:19:40;99358.81;;;18.09;59.92
35248;BME280;21380;52.194;20.520;2023-04-25T06:22:07;99367.47;;;18.11;59.88
35248;BME280;21380;52.194;20.520;2023-04-25T06:24:33;99358.78;;;18.11;59.81
35248;BME280;21380;52.194;20.520;2023-04-25T06:26:59;99357.94;;;18.10;59.60
35248;BME280;21380;52.194;20.520;2023-04-25T06:29:25;99358.78;;;18.12;59.60
35248;BME280;21380;52.194;20.520;2023-04-25T06:31:51;99374.38;;;18.22;59.50
35248;BME280;21380;52.194;20.520;2023-04-25T06:34:17;99374.38;;;18.19;59.45
35248;BME280;21380;52.194;20.520;2023-04-25T06:36:43;99369.16;;;18.20;59.22
35248;BME280;21380;52.194;20.520;2023-04-25T06:39:10;99353.56;;;18.11;59.11
35248;BME280;21380;52.194;20.520;2023-04-25T06:41:36;99388.25;;;18.28;59.52
35248;BME280;21380;52.194;20.520;2023-04-25T06:44:02;99371.75;;;18.23;59.36
35248;BME280;21380;52.194;20.520;2023-04-25T06:46:28;99370.00;;;18.22;59.48
35248;BME280;21380;52.194;20.520;2023-04-25T06:48:54;99375.22;;;18.25;59.33
35248;BME280;21380;52.194;20.520;2023-04-25T06:51:20;99357.00;;;18.18;59.07
35248;BME280;21380;52.194;20.520;2023-04-25T06:53:46;99376.94;;;18.29;59.22
35248;BME280;21380;52.194;20.520;2023-04-25T06:56:12;99383.88;;;18.30;59.24
35248;BME280;21380;52.194;20.520;2023-04-25T06:58:38;99382.16;;;18.29;59.14
35248;BME280;21380;52.194;20.520;2023-04-25T07:01:04;99370.00;;;18.24;59.29
35248;BME280;21380;52.194;20.520;2023-04-25T07:03:30;99377.75;;;18.31;59.22
35248;BME280;21380;52.194;20.520;2023-04-25T07:05:56;99386.50;;;18.29;59.17
35248;BME280;21380;52.194;20.520;2023-04-25T07:08:21;99390.81;;;18.31;59.02
35248;BME280;21380;52.194;20.520;2023-04-25T07:10:47;99395.19;;;18.31;59.17
35248;BME280;21380;52.194;20.520;2023-04-25T07:13:13;99381.25;;;18.32;58.97
35248;BME280;21380;52.194;20.520;2023-04-25T07:15:39;99369.13;;;18.28;59.06
35248;BME280;21380;52.194;20.520;2023-04-25T07:18:05;99388.22;;;18.31;59.05
35248;BME280;21380;52.194;20.520;2023-04-25T07:20:30;99389.09;;;18.29;58.93
35248;BME280;21380;52.194;20.520;2023-04-25T07:22:57;99393.44;;;18.30;58.82
35248;BME280;21380;52.194;20.520;2023-04-25T07:25:23;99406.78;;;17.82;58.66
35248;BME280;21380;52.194;20.520;2023-04-25T07:27:49;99394.72;;;17.59;60.62
35248;BME280;21380;52.194;20.520;2023-04-25T07:30:14;99380.75;;;17.73;59.80
35248;BME280;21380;52.194;20.520;2023-04-25T07:32:40;99385.00;;;17.89;59.21
35248;BME280;21380;52.194;20.520;2023-04-25T07:35:06;99392.78;;;18.03;59.47
35248;BME280;21380;52.194;20.520;2023-04-25T07:37:35;99392.75;;;18.08;60.76
35248;BME280;21380;52.194;20.520;2023-04-25T07:40:02;99368.41;;;18.04;63.88
35248;BME280;21380;52.194;20.520;2023-04-25T07:42:30;99393.50;;;18.24;64.40
35248;BME280;21380;52.194;20.520;2023-04-25T07:44:55;99402.13;;;18.34;64.40
35248;BME280;21380;52.194;20.520;2023-04-25T07:47:22;99396.00;;;18.38;66.63
35248;BME280;21380;52.194;20.520;2023-04-25T07:49:47;99392.50;;;18.42;67.72
35248;BME280;21380;52.194;20.520;2023-04-25T07:52:13;99407.16;;;18.58;69.03
35248;BME280;21380;52.194;20.520;2023-04-25T07:54:39;99400.13;;;18.65;68.26
35248;BME280;21380;52.194;20.520;2023-04-25T07:57:05;99390.53;;;18.67;68.84
35248;BME280;21380;52.194;20.520;2023-04-25T07:59:34;99401.75;;;18.78;68.10
35248;BME280;21380;52.194;20.520;2023-04-25T08:02:00;99406.06;;;18.84;67.43
35248;BME280;21380;52.194;20.520;2023-04-25T08:04:26;99406.03;;;18.87;67.58
35248;BME280;21380;52.194;20.520;2023-04-25T08:06:52;99390.38;;;18.84;68.36
35248;BME280;21380;52.194;20.520;2023-04-25T08:09:22;99402.50;;;18.94;68.61
35248;BME280;21380;52.194;20.520;2023-04-25T08:11:48;99418.13;;;19.01;69.30
35248;BME280;21380;52.194;20.520;2023-04-25T08:14:14;99399.00;;;18.95;69.57
35248;BME280;21380;52.194;20.520;2023-04-25T08:16:40;99418.06;;;19.07;69.63
35248;BME280;21380;52.194;20.520;2023-04-25T08:19:06;99392.00;;;18.98;69.61
35248;BME280;21380;52.194;20.520;2023-04-25T08:21:32;99408.41;;;19.12;69.82
35248;BME280;21380;52.194;20.520;2023-04-25T08:23:58;99412.72;;;19.16;70.02
35248;BME280;21380;52.194;20.520;2023-04-25T08:26:24;99391.03;;;19.09;68.59
35248;BME280;21380;52.194;20.520;2023-04-25T08:28:51;99406.59;;;19.19;68.74
35248;BME280;21380;52.194;20.520;2023-04-25T08:31:17;99402.25;;;19.19;69.95
35248;BME280;21380;52.194;20.520;2023-04-25T08:33:43;99400.47;;;19.21;69.61
35248;BME280;21380;52.194;20.520;2023-04-25T08:36:10;99411.75;;;19.25;69.61
35248;BME280;21380;52.194;20.520;2023-04-25T08:38:36;99409.13;;;19.26;69.65
35248;BME280;21380;52.194;20.520;2023-04-25T08:41:02;99413.47;;;19.27;69.65
35248;BME280;21380;52.194;20.520;2023-04-25T08:43:29;99409.13;;;19.28;68.94
35248;BME280;21380;52.194;20.520;2023-04-25T08:46:00;99408.22;;;19.29;68.92
35248;BME280;21380;52.194;20.520;2023-04-25T08:48:32;99396.97;;;19.22;68.71
35248;BME280;21380;52.194;20.520;2023-04-25T08:50:58;99402.97;;;19.29;68.60
35248;BME280;21380;52.194;20.520;2023-04-25T08:53:32;99421.28;;;19.32;68.92
35248;BME280;21380;52.194;20.520;2023-04-25T08:56:00;99422.13;;;19.33;68.92
35248;BME280;21380;52.194;20.520;2023-04-25T08:58:30;99419.53;;;19.31;69.02
35248;BME280;21380;52.194;20.520;2023-04-25T09:00:56;99422.09;;;19.34;69.43
35248;BME280;21380;52.194;20.520;2023-04-25T09:03:22;99431.72;;;19.32;69.60
35248;BME280;21380;52.194;20.520;2023-04-25T09:05:47;99416.03;;;19.32;69.83
35248;BME280;21380;52.194;20.520;2023-04-25T09:08:14;99429.06;;;19.37;69.69
35248;BME280;21380;52.194;20.520;2023-04-25T09:10:40;99422.97;;;19.35;69.03
35248;BME280;21380;52.194;20.520;2023-04-25T09:13:08;99429.03;;;19.38;69.53
35248;BME280;21380;52.194;20.520;2023-04-25T09:15:55;99432.50;;;19.39;69.25
35248;BME280;21380;52.194;20.520;2023-04-25T09:18:34;99422.94;;;19.38;68.86
35248;BME280;21380;52.194;20.520;2023-04-25T09:21:09;99429.06;;;19.37;69.15
35248;BME280;21380;52.194;20.520;2023-04-25T09:23:45;99438.63;;;19.39;69.12
35248;BME280;21380;52.194;20.520;2023-04-25T09:26:16;99436.88;;;19.40;69.31
35248;BME280;21380;52.194;20.520;2023-04-25T09:28:42;99450.81;;;19.42;68.81
35248;BME280;21380;52.194;20.520;2023-04-25T09:31:10;99445.59;;;19.39;68.94
35248;BME280;21380;52.194;20.520;2023-04-25T09:33:40;99453.38;;;19.43;68.61
35248;BME280;21380;52.194;20.520;2023-04-25T09:36:08;99436.88;;;19.40;68.60
35248;BME280;21380;52.194;20.520;2023-04-25T09:38:42;99447.38;;;19.37;68.79
35248;BME280;21380;52.194;20.520;2023-04-25T09:41:09;99440.41;;;19.36;68.70
35248;BME280;21380;52.194;20.520;2023-04-25T09:43:36;99449.94;;;19.40;67.88
35248;BME280;21380;52.194;20.520;2023-04-25T09:46:02;99449.06;;;19.38;67.74
35248;BME280;21380;52.194;20.520;2023-04-25T09:48:29;99457.81;;;19.38;67.42
35248;BME280;21380;52.194;20.520;2023-04-25T09:51:13;99470.84;;;19.41;67.67
35248;BME280;21380;52.194;20.520;2023-04-25T09:53:40;99461.25;;;19.40;68.01
35248;BME280;21380;52.194;20.520;2023-04-25T09:56:08;99466.50;;;19.39;67.47
35248;BME280;21380;52.194;20.520;2023-04-25T09:58:36;99459.63;;;19.33;67.31
35248;BME280;21380;52.194;20.520;2023-04-25T10:01:07;99465.69;;;19.37;67.30
35248;BME280;21380;52.194;20.520;2023-04-25T10:03:35;99469.13;;;19.39;67.35
35248;BME280;21380;52.194;20.520;2023-04-25T10:06:04;99479.56;;;19.40;67.05
35248;BME280;21380;52.194;20.520;2023-04-25T10:08:37;99486.53;;;19.41;66.90
35248;BME280;21380;52.194;20.520;2023-04-25T10:11:06;99483.94;;;19.40;66.70
35248;BME280;21380;52.194;20.520;2023-04-25T10:13:34;99497.00;;;19.41;66.96
35248;BME280;21380;52.194;20.520;2023-04-25T10:16:04;99487.41;;;19.40;66.55
35248;BME280;21380;52.194;20.520;2023-04-25T10:18:32;99479.66;;;19.33;66.64
35248;BME280;21380;52.194;20.520;2023-04-25T10:20:59;99486.59;;;19.37;66.63
35248;BME280;21380;52.194;20.520;2023-04-25T10:23:26;99488.31;;;19.39;66.25
35248;BME280;21380;52.194;20.520;2023-04-25T10:25:53;99489.19;;;19.38;66.24
35248;BME280;21380;52.194;20.520;2023-04-25T10:28:20;99484.81;;;19.39;66.36
35248;BME280;21380;52.194;20.520;2023-04-25T10:31:01;99483.06;;;19.38;66.24
35248;BME280;21380;52.194;20.520;2023-04-25T10:33:38;99484.84;;;19.34;65.91
35248;BME280;21380;52.194;20.520;2023-04-25T10:36:23;99490.91;;;19.38;65.80
35248;BME280;21380;52.194;20.520;2023-04-25T10:38:51;99476.16;;;19.34;66.07
35248;BME280;21380;52.194;20.520;2023-04-25T10:41:19;99472.75;;;19.27;65.54
35248;BME280;21380;52.194;20.520;2023-04-25T10:43:47;99484.84;;;19.34;65.65
35248;BME280;21380;52.194;20.520;2023-04-25T10:46:27;99474.50;;;19.28;65.41
35248;BME280;21380;52.194;20.520;2023-04-25T10:48:55;99474.50;;;19.28;65.25
35248;BME280;21380;52.194;20.520;2023-04-25T10:51:29;99491.84;;;19.34;65.37
35248;BME280;21380;52.194;20.520;2023-04-25T10:54:01;99490.09;;;19.33;65.14
35248;BME280;21380;52.194;20.520;2023-04-25T10:56:28;99481.41;;;19.32;65.25
35248;BME280;21380;52.194;20.520;2023-04-25T10:59:17;99484.03;;;19.32;65.18
35248;BME280;21380;52.194;20.520;2023-04-25T11:01:45;99478.00;;;19.22;65.24
35248;BME280;21380;52.194;20.520;2023-04-25T11:04:28;99485.75;;;19.32;65.03
35248;BME280;21380;52.194;20.520;2023-04-25T11:10:03;99484.06;;;19.27;65.07
35248;BME280;21380;52.194;20.520;2023-04-25T11:12:30;99469.34;;;19.19;65.12
35248;BME280;21380;52.194;20.520;2023-04-25T11:15:01;99471.88;;;19.26;65.42
35248;BME280;21380;52.194;20.520;2023-04-25T11:17:28;99481.41;;;19.29;64.94
35248;BME280;21380;52.194;20.520;2023-04-25T11:19:54;99476.25;;;19.24;64.96
35248;BME280;21380;52.194;20.520;2023-04-25T11:22:21;99476.25;;;19.24;65.23
35248;BME280;21380;52.194;20.520;2023-04-25T11:24:47;99481.44;;;19.27;64.86
35248;BME280;21380;52.194;20.520;2023-04-25T11:27:13;99486.69;;;19.26;64.82
35248;BME280;21380;52.194;20.520;2023-04-25T11:29:40;99479.72;;;19.26;64.76
35248;BME280;21380;52.194;20.520;2023-04-25T11:32:06;99463.22;;;19.20;64.39
35248;BME280;21380;52.194;20.520;2023-04-25T11:34:33;99478.88;;;19.24;64.62
35248;BME280;21380;52.194;20.520;2023-04-25T11:37:00;99473.66;;;19.21;64.54
35248;BME280;21380;52.194;20.520;2023-04-25T11:39:28;99472.75;;;19.25;64.42
35248;BME280;21380;52.194;20.520;2023-04-25T11:41:54;99475.34;;;19.25;64.54
35248;BME280;21380;52.194;20.520;2023-04-25T11:44:22;99471.94;;;19.22;64.45
35248;BME280;21380;52.194;20.520;2023-04-25T11:46:48;99475.44;;;19.19;64.38
35248;BME280;21380;52.194;20.520;2023-04-25T11:49:14;99485.81;;;19.25;64.57
35248;BME280;21380;52.194;20.520;2023-04-25T11:51:41;99478.88;;;19.24;64.25
35248;BME280;21380;52.194;20.520;2023-04-25T11:54:09;99478.00;;;19.24;64.13
35248;BME280;21380;52.194;20.520;2023-04-25T11:56:35;99477.13;;;19.25;64.19
35248;BME280;21380;52.194;20.520;2023-04-25T11:59:02;99463.25;;;19.17;64.26
35248;BME280;21380;52.194;20.520;2023-04-25T12:01:33;99471.00;;;19.26;64.07
35248;BME280;21380;52.194;20.520;2023-04-25T12:04:22;99466.69;;;19.23;63.97
35248;BME280;21380;52.194;20.520;2023-04-25T12:06:52;99467.50;;;19.25;63.91
35248;BME280;21380;52.194;20.520;2023-04-25T12:09:32;99465.81;;;19.24;64.08
35248;BME280;21380;52.194;20.520;2023-04-25T12:11:59;99467.53;;;19.27;64.09
35248;BME280;21380;52.194;20.520;2023-04-25T12:14:31;99471.88;;;19.28;64.28
35248;BME280;21380;52.194;20.520;2023-04-25T12:16:59;99464.03;;;19.25;64.58
35248;BME280;21380;52.194;20.520;2023-04-25T12:19:26;99469.25;;;19.26;64.40
35248;BME280;21380;52.194;20.520;2023-04-25T12:21:57;99455.34;;;19.23;64.56
35248;BME280;21380;52.194;20.520;2023-04-25T12:24:25;99469.25;;;19.30;64.59
35248;BME280;21380;52.194;20.520;2023-04-25T12:26:59;99466.63;;;19.30;64.42
35248;BME280;21380;52.194;20.520;2023-04-25T12:29:28;99471.84;;;19.30;64.28
35248;BME280;21380;52.194;20.520;2023-04-25T12:31:54;99469.25;;;19.30;64.42
35248;BME280;21380;52.194;20.520;2023-04-25T12:34:22;99464.03;;;19.28;64.32
35248;BME280;21380;52.194;20.520;2023-04-25T12:36:49;99453.56;;;19.26;64.43
35248;BME280;21380;52.194;20.520;2023-04-25T12:39:22;99454.44;;;19.27;64.42
35248;BME280;21380;52.194;20.520;2023-04-25T12:41:52;99467.47;;;19.30;64.42
35248;BME280;21380;52.194;20.520;2023-04-25T12:44:20;99464.84;;;19.32;64.60
35248;BME280;21380;52.194;20.520;2023-04-25T12:46:47;99455.31;;;19.27;64.45
35248;BME280;21380;52.194;20.520;2023-04-25T12:49:13;99445.78;;;19.23;64.33
35248;BME280;21380;52.194;20.520;2023-04-25T12:51:39;99461.38;;;19.31;64.38
35248;BME280;21380;52.194;20.520;2023-04-25T12:54:05;99464.84;;;19.32;64.43